Time;durP1;ratioP1;P1;durP2;ratioP2;P2;SDS_P1;SDS_P2;PMS_P1;PMS_P2;Temp;Humidity;BMP_temperature;BMP_pressure;BME280_temperature;BME280_humidity;BME280_pressure;Samples;Min_cycle;Max_cycle;Signal;HPM_P1;HPM_P2
2021/07/13 00:03:19;;;;;;;5.37;2.63;;;;;;;;;;10255120;28;20743;-74
2021/07/13 00:08:22;;;;;;;6.53;2.90;;;;;;;;;;10248161;28;20197;-74
2021/07/13 00:13:25;;;;;;;4.77;2.60;;;;;;;;;;10269866;28;20235;-75
2021/07/13 00:18:28;;;;;;;6.60;3.00;;;;;;;;;;10258094;28;20199;-75
2021/07/13 00:23:31;;;;;;;5.67;3.00;;;;;;;;;;10252217;28;20298;-74
2021/07/13 00:28:35;;;;;;;6.87;3.07;;;;;;;;;;10238594;28;20584;-74
2021/07/13 00:33:37;;;;;;;4.87;2.70;;;;;;;;;;10252627;28;20216;-73
2021/07/13 00:38:40;;;;;;;6.10;3.33;;;;;;;;;;10249011;28;20193;-74
2021/07/13 00:43:44;;;;;;;7.03;3.00;;;;;;;;;;10251188;28;20286;-73
2021/07/13 00:48:47;;;;;;;7.57;3.10;;;;;;;;;;10242478;28;20291;-73
2021/07/13 00:53:51;;;;;;;5.93;2.93;;;;;;;;;;10250997;28;20213;-73
2021/07/13 00:58:55;;;;;;;6.50;3.10;;;;;;;;;;10255318;28;20350;-73
2021/07/13 01:03:58;;;;;;;5.97;3.30;;;;;;;;;;10246155;28;20209;-75
2021/07/13 01:09:05;;;;;;;8.13;3.30;;;;;;;;;;10241466;28;20256;-75
2021/07/13 01:14:10;;;;;;;7.60;3.20;;;;;;;;;;10253378;28;20303;-75
2021/07/13 01:19:16;;;;;;;6.13;3.20;;;;;;;;;;10249540;28;20528;-74
2021/07/13 01:24:36;;;;;;;6.90;3.43;;;;;;;;;;10243288;28;20212;-75
2021/07/13 01:29:42;;;;;;;6.50;3.30;;;;;;;;;;10252572;28;20270;-75
2021/07/13 01:34:48;;;;;;;5.80;3.30;;;;;;;;;;10257549;28;20315;-74
2021/07/13 01:39:51;;;;;;;5.93;3.13;;;;;;;;;;10251646;28;20246;-75
2021/07/13 01:44:55;;;;;;;6.63;3.23;;;;;;;;;;10251177;28;20188;-75
2021/07/13 01:49:58;;;;;;;4.87;2.77;;;;;;;;;;10243179;28;20225;-76
2021/07/13 01:55:01;;;;;;;5.67;2.90;;;;;;;;;;10240130;28;20258;-76
2021/07/13 02:00:07;;;;;;;6.73;2.97;;;;;;;;;;10247234;28;20311;-75
2021/07/13 02:05:10;;;;;;;6.17;3.00;;;;;;;;;;10250278;28;20661;-74
2021/07/13 02:10:13;;;;;;;5.53;2.90;;;;;;;;;;10253763;28;20525;-74
2021/07/13 02:15:17;;;;;;;6.17;2.93;;;;;;;;;;10242630;28;20249;-74
2021/07/13 02:20:21;;;;;;;5.50;2.90;;;;;;;;;;10238814;28;20243;-74
2021/07/13 02:25:23;;;;;;;5.60;3.17;;;;;;;;;;10248407;28;20192;-74
2021/07/13 02:30:28;;;;;;;6.10;3.13;;;;;;;;;;10234994;28;20769;-75
2021/07/13 02:35:34;;;;;;;6.43;3.53;;;;;;;;;;10247079;28;20614;-73
2021/07/13 02:40:37;;;;;;;6.97;3.27;;;;;;;;;;10249096;28;20239;-73
2021/07/13 02:45:41;;;;;;;6.43;3.23;;;;;;;;;;10244827;28;20191;-74
2021/07/13 02:50:45;;;;;;;8.47;3.20;;;;;;;;;;10240853;28;20220;-74
2021/07/13 02:55:48;;;;;;;5.90;3.20;;;;;;;;;;10238050;28;20283;-75
2021/07/13 03:00:52;;;;;;;7.27;3.17;;;;;;;;;;10235190;28;20228;-73
2021/07/13 03:05:55;;;;;;;6.17;3.07;;;;;;;;;;10240327;28;20648;-73
2021/07/13 03:10:58;;;;;;;5.87;3.10;;;;;;;;;;10245504;28;20266;-74
2021/07/13 03:16:03;;;;;;;6.57;3.33;;;;;;;;;;10257753;28;20220;-74
2021/07/13 03:21:05;;;;;;;7.17;3.60;;;;;;;;;;10237563;28;20231;-72
2021/07/13 03:26:09;;;;;;;7.43;3.47;;;;;;;;;;10244751;28;20609;-74
2021/07/13 03:31:13;;;;;;;6.60;3.50;;;;;;;;;;10236500;28;20250;-74
2021/07/13 03:36:18;;;;;;;6.47;3.40;;;;;;;;;;10259838;28;20712;-74
2021/07/13 03:41:21;;;;;;;6.27;3.43;;;;;;;;;;10256990;28;20561;-74
2021/07/13 03:46:25;;;;;;;6.73;3.33;;;;;;;;;;10263183;28;20200;-74
2021/07/13 03:51:35;;;;;;;8.23;3.60;;;;;;;;;;10260451;28;20596;-74
2021/07/13 03:56:38;;;;;;;8.33;3.30;;;;;;;;;;10255909;28;20363;-75
2021/07/13 04:01:42;;;;;;;5.37;3.17;;;;;;;;;;10248399;28;20395;-75
2021/07/13 04:06:44;;;;;;;6.67;3.40;;;;;;;;;;10238414;28;20212;-75
2021/07/13 04:11:47;;;;;;;7.90;3.70;;;;;;;;;;10248412;28;20283;-74
2021/07/13 04:16:53;;;;;;;6.80;3.40;;;;;;;;;;10248710;28;20232;-74
2021/07/13 04:22:15;;;;;;;7.10;3.43;;;;;;;;;;10251526;28;20739;-75
2021/07/13 04:27:38;;;;;;;8.03;3.53;;;;;;;;;;10256888;28;20197;-75
2021/07/13 04:33:02;;;;;;;6.13;3.30;;;;;;;;;;10251685;28;20220;-74
2021/07/13 04:38:25;;;;;;;6.80;3.57;;;;;;;;;;10259191;28;20274;-75
2021/07/13 04:43:47;;;;;;;11.63;3.33;;;;;;;;;;10249591;28;20534;-76
2021/07/13 04:48:52;;;;;;;6.43;3.43;;;;;;;;;;10256449;28;20196;-76
2021/07/13 04:54:14;;;;;;;8.47;4.43;;;;;;;;;;10246095;28;20247;-75
2021/07/13 04:59:37;;;;;;;7.10;3.50;;;;;;;;;;10246477;28;20199;-75
2021/07/13 05:05:01;;;;;;;5.37;2.93;;;;;;;;;;10252557;28;20223;-75
2021/07/13 05:10:04;;;;;;;7.30;3.43;;;;;;;;;;10257009;28;20232;-74
2021/07/13 05:15:09;;;;;;;7.50;3.87;;;;;;;;;;10258892;28;20235;-75
2021/07/13 05:20:14;;;;;;;7.30;3.10;;;;;;;;;;10252151;28;20221;-76
2021/07/13 05:25:17;;;;;;;5.67;3.33;;;;;;;;;;10236732;28;20296;-76
2021/07/13 05:30:20;;;;;;;6.80;3.40;;;;;;;;;;10246204;28;20298;-76
2021/07/13 05:35:24;;;;;;;7.60;3.53;;;;;;;;;;10245148;28;20208;-74
2021/07/13 05:40:27;;;;;;;7.70;3.60;;;;;;;;;;10253388;28;20443;-75
2021/07/13 05:45:29;;;;;;;7.17;3.20;;;;;;;;;;10245005;28;20567;-76
2021/07/13 05:50:34;;;;;;;7.70;3.60;;;;;;;;;;10246624;28;20216;-76
2021/07/13 05:55:36;;;;;;;6.80;3.40;;;;;;;;;;10246367;28;20323;-73
2021/07/13 06:00:39;;;;;;;6.57;3.70;;;;;;;;;;10258186;28;20250;-75
2021/07/13 06:05:44;;;;;;;7.13;3.33;;;;;;;;;;10233606;28;20259;-75
2021/07/13 06:10:46;;;;;;;6.57;3.87;;;;;;;;;;10237722;28;20287;-75
2021/07/13 06:15:49;;;;;;;7.00;3.80;;;;;;;;;;10240300;28;20656;-73
2021/07/13 06:20:53;;;;;;;7.00;3.87;;;;;;;;;;10242002;28;20648;-71
2021/07/13 06:25:58;;;;;;;8.30;3.73;;;;;;;;;;10246049;28;20504;-76
2021/07/13 06:31:02;;;;;;;8.63;3.80;;;;;;;;;;10229172;28;20220;-75
2021/07/13 06:36:06;;;;;;;6.37;3.43;;;;;;;;;;10241210;28;20223;-76
2021/07/13 06:41:08;;;;;;;7.10;3.60;;;;;;;;;;10234686;28;20300;-76
2021/07/13 06:46:11;;;;;;;7.97;4.30;;;;;;;;;;10240810;28;20189;-76
2021/07/13 06:51:15;;;;;;;6.33;3.70;;;;;;;;;;10249036;28;20212;-76
2021/07/13 06:56:18;;;;;;;8.43;3.90;;;;;;;;;;10226268;28;20291;-75
2021/07/13 07:01:20;;;;;;;7.13;3.67;;;;;;;;;;10236830;28;20228;-75
2021/07/13 07:06:24;;;;;;;6.70;3.57;;;;;;;;;;10228656;28;20192;-75
2021/07/13 07:11:26;;;;;;;7.77;4.20;;;;;;;;;;10218138;28;20328;-75
2021/07/13 07:16:29;;;;;;;6.97;3.77;;;;;;;;;;10231166;28;20328;-74
2021/07/13 07:21:33;;;;;;;8.35;3.70;;;;;;;;;;10239431;28;20279;-76
2021/07/13 07:26:35;;;;;;;6.07;3.83;;;;;;;;;;10246117;28;20225;-75
2021/07/13 07:31:38;;;;;;;6.32;3.67;;;;;;;;;;10245645;28;20761;-75
2021/07/13 07:36:43;;;;;;;7.78;3.65;;;;;;;;;;10237462;28;20628;-75
2021/07/13 07:41:46;;;;;;;7.38;3.78;;;;;;;;;;10216816;28;20220;-74
2021/07/13 07:46:49;;;;;;;6.95;3.88;;;;;;;;;;10240806;28;21013;-77
2021/07/13 07:51:53;;;;;;;6.90;3.60;;;;;;;;;;10239535;28;20295;-75
2021/07/13 07:56:56;;;;;;;6.88;3.80;;;;;;;;;;10249587;28;20710;-76
2021/07/13 08:01:58;;;;;;;7.72;3.97;;;;;;;;;;10247396;28;20335;-77
2021/07/13 08:07:03;;;;;;;6.65;4.03;;;;;;;;;;10241057;28;20684;-77
2021/07/13 08:12:05;;;;;;;7.63;4.93;;;;;;;;;;10239025;28;20242;-76
2021/07/13 08:17:08;;;;;;;8.18;5.22;;;;;;;;;;10245688;28;20216;-76
2021/07/13 08:22:12;;;;;;;7.85;5.00;;;;;;;;;;10245329;28;20242;-76
2021/07/13 08:27:15;;;;;;;6.32;4.75;;;;;;;;;;10248672;28;20196;-76
2021/07/13 08:32:18;;;;;;;6.90;4.75;;;;;;;;;;10244588;28;20224;-76
2021/07/13 08:37:21;;;;;;;7.32;4.78;;;;;;;;;;10263353;28;20214;-76
2021/07/13 08:42:24;;;;;;;9.43;5.72;;;;;;;;;;10248030;28;20664;-75
2021/07/13 08:47:27;;;;;;;7.22;5.68;;;;;;;;;;10247290;28;20363;-76
2021/07/13 08:52:31;;;;;;;8.65;6.93;;;;;;;;;;10241453;28;20239;-76
2021/07/13 08:57:34;;;;;;;9.15;7.10;;;;;;;;;;10249891;28;20212;-76
2021/07/13 09:02:36;;;;;;;10.38;7.70;;;;;;;;;;10248111;28;20291;-76
2021/07/13 09:07:41;;;;;;;8.82;6.70;;;;;;;;;;10243604;28;20193;-74
2021/07/13 09:12:48;;;;;;;8.13;6.40;;;;;;;;;;10253772;28;20559;-75
2021/07/13 09:17:50;;;;;;;10.02;6.10;;;;;;;;;;10249568;28;20291;-76
2021/07/13 09:22:55;;;;;;;8.70;5.38;;;;;;;;;;10249782;28;20216;-74
2021/07/13 09:28:05;;;;;;;9.05;6.05;;;;;;;;;;10246426;28;20263;-75
2021/07/13 09:33:12;;;;;;;8.70;5.45;;;;;;;;;;10239738;28;20216;-75
2021/07/13 09:38:24;;;;;;;7.55;4.95;;;;;;;;;;10246148;28;20239;-76
2021/07/13 09:43:27;;;;;;;7.75;5.57;;;;;;;;;;10244930;28;20209;-76
2021/07/13 09:48:29;;;;;;;8.07;5.38;;;;;;;;;;10251649;28;20271;-76
2021/07/13 09:53:33;;;;;;;8.25;5.55;;;;;;;;;;10250211;28;20247;-75
2021/07/13 09:58:39;;;;;;;9.77;6.45;;;;;;;;;;10258234;28;20769;-75
2021/07/13 10:03:41;;;;;;;9.80;6.45;;;;;;;;;;10255819;28;20236;-76
2021/07/13 10:08:45;;;;;;;6.97;3.67;;;;;;;;;;10245351;28;20196;-75
2021/07/13 10:13:48;;;;;;;2.95;1.50;;;;;;;;;;10257458;28;20679;-71
2021/07/13 10:18:51;;;;;;;1.00;0.90;;;;;;;;;;10261704;28;20223;-73
2021/07/13 10:23:55;;;;;;;4.05;1.50;;;;;;;;;;10241666;28;20702;-73
2021/07/13 10:28:58;;;;;;;2.72;0.68;;;;;;;;;;10238070;28;20204;-72
2021/07/13 10:34:01;;;;;;;2.47;0.75;;;;;;;;;;10222478;28;20299;-71
2021/07/13 10:39:22;;;;;;;1.93;0.80;;;;;;;;;;10229657;28;20209;-70
2021/07/13 10:44:42;;;;;;;1.60;0.80;;;;;;;;;;10225180;28;20220;-72
2021/07/13 10:49:45;;;;;;;1.70;0.70;;;;;;;;;;10227474;28;20300;-72
2021/07/13 10:54:48;;;;;;;1.70;0.93;;;;;;;;;;10230425;28;20197;-72
2021/07/13 10:59:52;;;;;;;4.60;0.97;;;;;;;;;;10222555;28;20383;-72
2021/07/13 11:04:55;;;;;;;1.90;0.80;;;;;;;;;;10224287;28;20200;-71
2021/07/13 11:10:17;;;;;;;1.73;0.83;;;;;;;;;;10230870;28;20212;-70
2021/07/13 11:15:20;;;;;;;0.73;0.70;;;;;;;;;;10220596;28;20209;-71
2021/07/13 11:20:25;;;;;;;0.40;0.40;;;;;;;;;;10221690;28;20307;-73
2021/07/13 11:25:34;;;;;;;1.90;0.50;;;;;;;;;;10223896;28;20280;-72
2021/07/13 11:30:37;;;;;;;0.90;0.60;;;;;;;;;;10225929;28;20225;-71
2021/07/13 11:35:51;;;;;;;1.80;0.57;;;;;;;;;;10226530;28;20676;-73
2021/07/13 11:41:07;;;;;;;0.90;0.60;;;;;;;;;;10240612;28;20544;-72
2021/07/13 11:46:12;;;;;;;0.77;0.70;;;;;;;;;;10232770;28;20552;-72
2021/07/13 11:51:22;;;;;;;1.07;0.67;;;;;;;;;;10232175;28;20252;-71
2021/07/13 11:56:26;;;;;;;0.90;0.50;;;;;;;;;;10254030;28;20283;-72
2021/07/13 12:01:30;;;;;;;1.80;0.77;;;;;;;;;;10239531;28;20231;-71
2021/07/13 12:06:34;;;;;;;0.57;0.37;;;;;;;;;;10235101;28;20275;-71
2021/07/13 12:11:37;;;;;;;0.33;0.33;;;;;;;;;;10238826;28;20220;-72
2021/07/13 12:16:42;;;;;;;0.43;0.30;;;;;;;;;;10241829;28;20231;-73
2021/07/13 12:21:45;;;;;;;0.50;0.50;;;;;;;;;;10242609;28;21063;-73
2021/07/13 12:26:49;;;;;;;0.30;0.30;;;;;;;;;;10249793;28;20576;-73
2021/07/13 12:31:58;;;;;;;1.30;0.40;;;;;;;;;;10239554;28;20227;-72
2021/07/13 12:37:05;;;;;;;0.57;0.20;;;;;;;;;;10241707;28;20215;-73
2021/07/13 12:42:09;;;;;;;1.37;0.53;;;;;;;;;;10243781;28;20222;-73
2021/07/13 12:47:30;;;;;;;1.33;0.40;;;;;;;;;;10254092;28;20203;-74
2021/07/13 12:52:35;;;;;;;1.23;0.50;;;;;;;;;;10244242;28;20212;-73
2021/07/13 12:57:38;;;;;;;3.60;0.90;;;;;;;;;;10252652;28;20286;-73
2021/07/13 13:02:41;;;;;;;1.03;0.30;;;;;;;;;;10252001;28;20216;-73
2021/07/13 13:07:58;;;;;;;1.40;0.60;;;;;;;;;;10245020;28;20243;-73
2021/07/13 13:13:01;;;;;;;1.07;0.50;;;;;;;;;;10240043;28;20307;-72
2021/07/13 13:18:04;;;;;;;0.40;0.40;;;;;;;;;;10245785;28;20216;-72
2021/07/13 13:23:09;;;;;;;1.07;0.40;;;;;;;;;;10251208;28;20276;-71
2021/07/13 13:28:13;;;;;;;1.53;0.50;;;;;;;;;;10254795;28;20188;-72
2021/07/13 13:33:17;;;;;;;2.03;0.83;;;;;;;;;;10234236;28;20270;-73
2021/07/13 13:38:38;;;;;;;0.50;0.30;;;;;;;;;;10237162;28;20324;-72
2021/07/13 13:43:42;;;;;;;1.43;0.60;;;;;;;;;;10244586;28;20332;-72
2021/07/13 13:48:45;;;;;;;4.50;1.10;;;;;;;;;;10232007;28;20211;-73
2021/07/13 13:53:49;;;;;;;5.87;1.50;;;;;;;;;;10242086;28;20299;-71
2021/07/13 13:58:51;;;;;;;3.77;1.10;;;;;;;;;;10244334;28;20291;-74
2021/07/13 14:03:54;;;;;;;1.30;0.53;;;;;;;;;;10237219;28;20310;-72
2021/07/13 14:08:59;;;;;;;4.33;1.00;;;;;;;;;;10237775;28;20220;-73
2021/07/13 14:14:03;;;;;;;2.37;0.70;;;;;;;;;;10239453;28;20244;-73
2021/07/13 14:19:05;;;;;;;2.23;1.00;;;;;;;;;;10250973;28;20248;-74
2021/07/13 14:24:10;;;;;;;4.10;1.10;;;;;;;;;;10240509;28;20326;-74
2021/07/13 14:29:12;;;;;;;2.23;1.10;;;;;;;;;;10249156;28;20522;-74
2021/07/13 14:34:15;;;;;;;1.00;0.70;;;;;;;;;;10253241;28;20655;-72
2021/07/13 14:39:19;;;;;;;2.87;1.20;;;;;;;;;;10253190;28;20663;-73
2021/07/13 14:44:21;;;;;;;3.63;1.30;;;;;;;;;;10253972;28;20565;-73
2021/07/13 14:49:24;;;;;;;1.23;1.03;;;;;;;;;;10258621;28;20292;-74
2021/07/13 14:54:28;;;;;;;3.90;1.40;;;;;;;;;;10249863;28;20518;-73
2021/07/13 14:59:30;;;;;;;2.87;1.17;;;;;;;;;;10258774;28;20575;-73
2021/07/13 15:04:33;;;;;;;3.17;1.30;;;;;;;;;;10251221;28;20215;-73
2021/07/13 15:09:37;;;;;;;3.70;1.80;;;;;;;;;;10230691;28;20288;-73
2021/07/13 15:14:40;;;;;;;4.27;1.80;;;;;;;;;;10244244;28;20212;-74
2021/07/13 15:19:43;;;;;;;4.03;1.70;;;;;;;;;;10244077;28;20238;-74
2021/07/13 15:24:47;;;;;;;4.87;1.70;;;;;;;;;;10244102;28;20193;-74
2021/07/13 15:29:49;;;;;;;2.33;1.40;;;;;;;;;;10258042;28;20691;-74
2021/07/13 15:34:52;;;;;;;4.07;1.80;;;;;;;;;;10239340;28;20208;-73
2021/07/13 15:39:56;;;;;;;6.97;3.40;;;;;;;;;;10244229;28;20292;-75
2021/07/13 15:44:58;;;;;;;4.30;1.53;;;;;;;;;;10255144;28;20739;-75
2021/07/13 15:50:01;;;;;;;4.23;1.37;;;;;;;;;;10250546;28;20216;-74
2021/07/13 15:55:06;;;;;;;5.33;1.87;;;;;;;;;;10249064;28;20200;-74
2021/07/13 16:00:09;;;;;;;4.33;1.60;;;;;;;;;;10257331;28;20224;-75
2021/07/13 16:05:12;;;;;;;4.87;1.70;;;;;;;;;;10255535;28;20196;-75
2021/07/13 16:10:17;;;;;;;4.83;1.90;;;;;;;;;;10253645;28;20264;-74
2021/07/13 16:15:20;;;;;;;3.37;1.37;;;;;;;;;;10254408;28;20236;-74
2021/07/13 16:20:22;;;;;;;5.70;2.20;;;;;;;;;;10250989;28;20572;-74
2021/07/13 16:25:26;;;;;;;4.60;1.97;;;;;;;;;;10245491;28;20619;-74
2021/07/13 16:30:29;;;;;;;4.40;2.00;;;;;;;;;;10248156;28;20287;-74
2021/07/13 16:35:32;;;;;;;5.17;2.00;;;;;;;;;;10248181;28;20259;-74
2021/07/13 16:40:36;;;;;;;4.27;1.70;;;;;;;;;;10251095;28;20349;-75
2021/07/13 16:45:38;;;;;;;2.10;1.43;;;;;;;;;;10244066;28;20295;-73
2021/07/13 16:50:41;;;;;;;3.17;1.60;;;;;;;;;;10249075;28;20319;-75
2021/07/13 16:55:46;;;;;;;3.97;1.70;;;;;;;;;;10246381;28;20533;-75
2021/07/13 17:00:50;;;;;;;4.30;2.00;;;;;;;;;;10246935;28;20323;-74
2021/07/13 17:05:52;;;;;;;5.40;2.00;;;;;;;;;;10240551;28;20303;-73
2021/07/13 17:10:56;;;;;;;3.37;1.47;;;;;;;;;;10235604;28;20279;-74
2021/07/13 17:15:59;;;;;;;4.27;1.77;;;;;;;;;;10242879;28;20219;-74
2021/07/13 17:21:01;;;;;;;3.50;1.93;;;;;;;;;;10249122;28;20235;-74
2021/07/13 17:26:13;;;;;;;10.50;6.30;;;;;;;;;;10250792;28;20299;-74
2021/07/13 17:31:16;;;;;;;2.70;1.37;;;;;;;;;;10249011;28;20243;-74
2021/07/13 17:36:18;;;;;;;2.10;1.40;;;;;;;;;;10240101;28;20216;-74
2021/07/13 17:41:22;;;;;;;3.33;1.53;;;;;;;;;;10243516;28;20355;-74
2021/07/13 17:46:25;;;;;;;3.17;1.70;;;;;;;;;;10251458;28;20673;-74
2021/07/13 17:51:27;;;;;;;4.67;2.33;;;;;;;;;;10242785;28;20219;-74
2021/07/13 17:56:31;;;;;;;7.93;3.90;;;;;;;;;;10242713;28;20295;-75
2021/07/13 18:01:34;;;;;;;1.53;1.00;;;;;;;;;;10239156;28;20704;-73
2021/07/13 18:06:36;;;;;;;3.87;1.33;;;;;;;;;;10240383;28;20197;-73
2021/07/13 18:11:41;;;;;;;2.97;1.40;;;;;;;;;;10253429;28;20220;-76
2021/07/13 18:16:43;;;;;;;2.27;1.40;;;;;;;;;;10253453;28;20278;-75
2021/07/13 18:21:46;;;;;;;3.27;1.37;;;;;;;;;;10236902;28;20307;-74
2021/07/13 18:26:50;;;;;;;2.90;1.37;;;;;;;;;;10235387;28;20259;-74
2021/07/13 18:31:54;;;;;;;3.10;1.30;;;;;;;;;;10240795;28;20216;-75
2021/07/13 18:36:57;;;;;;;3.93;1.70;;;;;;;;;;10240543;28;20188;-73
2021/07/13 18:42:01;;;;;;;2.90;1.57;;;;;;;;;;10238946;28;20323;-73
2021/07/13 18:47:04;;;;;;;5.67;2.10;;;;;;;;;;10229409;28;20220;-75
2021/07/13 18:52:06;;;;;;;2.70;1.30;;;;;;;;;;10244281;28;20579;-73
2021/07/13 18:57:10;;;;;;;3.17;1.30;;;;;;;;;;10239795;28;20378;-74
2021/07/13 19:02:13;;;;;;;4.23;1.40;;;;;;;;;;10236836;28;20224;-75
2021/07/13 19:07:16;;;;;;;4.20;1.60;;;;;;;;;;10241146;28;20299;-74
2021/07/13 19:12:20;;;;;;;2.53;1.33;;;;;;;;;;10240280;28;20273;-75
2021/07/13 19:17:22;;;;;;;3.33;1.67;;;;;;;;;;10250625;28;20201;-75
2021/07/13 19:22:25;;;;;;;3.87;1.30;;;;;;;;;;10261835;28;20228;-76
2021/07/13 19:27:29;;;;;;;3.97;1.90;;;;;;;;;;10250526;28;20771;-76
2021/07/13 19:32:33;;;;;;;7.70;3.20;;;;;;;;;;10247379;28;20584;-76
2021/07/13 19:37:37;;;;;;;11.00;6.73;;;;;;;;;;10258513;28;20200;-76
2021/07/13 19:42:41;;;;;;;5.50;2.50;;;;;;;;;;10257766;28;20220;-76
2021/07/13 19:47:44;;;;;;;3.10;1.67;;;;;;;;;;10252934;28;20201;-77
2021/07/13 19:52:47;;;;;;;11.30;5.63;;;;;;;;;;10261132;28;20305;-77
2021/07/13 19:57:52;;;;;;;2.83;1.60;;;;;;;;;;10262027;28;20193;-76
2021/07/13 20:02:55;;;;;;;3.87;1.70;;;;;;;;;;10252973;28;20571;-77
2021/07/13 20:07:57;;;;;;;4.57;1.43;;;;;;;;;;10251508;28;20199;-77
2021/07/13 20:13:01;;;;;;;3.57;1.67;;;;;;;;;;10260293;28;20303;-77
2021/07/13 20:18:04;;;;;;;4.20;2.13;;;;;;;;;;10262956;28;20291;-76
2021/07/13 20:23:07;;;;;;;4.27;2.00;;;;;;;;;;10255814;28;21102;-76
2021/07/13 20:28:11;;;;;;;2.97;1.60;;;;;;;;;;10260770;28;20716;-77
2021/07/13 20:33:13;;;;;;;3.10;1.70;;;;;;;;;;10262034;28;20239;-76
2021/07/13 20:38:16;;;;;;;3.13;1.53;;;;;;;;;;10245185;28;20282;-76
2021/07/13 20:43:19;;;;;;;3.57;1.67;;;;;;;;;;10238495;28;20699;-76
2021/07/13 20:48:22;;;;;;;2.73;1.40;;;;;;;;;;10228703;28;20259;-75
2021/07/13 20:53:25;;;;;;;2.70;1.60;;;;;;;;;;10234855;28;20271;-76
2021/07/13 20:58:28;;;;;;;8.07;4.37;;;;;;;;;;10231402;28;20196;-75
2021/07/13 21:03:31;;;;;;;3.37;1.80;;;;;;;;;;10231439;28;20251;-76
2021/07/13 21:08:34;;;;;;;3.90;2.10;;;;;;;;;;10229294;28;20197;-77
2021/07/13 21:13:38;;;;;;;5.03;2.03;;;;;;;;;;10223570;28;20635;-76
2021/07/13 21:18:41;;;;;;;4.90;2.00;;;;;;;;;;10219052;28;20688;-77
2021/07/13 21:23:43;;;;;;;4.73;1.90;;;;;;;;;;10228851;28;20225;-76
2021/07/13 21:28:47;;;;;;;4.23;2.30;;;;;;;;;;10251154;28;20692;-75
2021/07/13 21:33:50;;;;;;;4.20;2.10;;;;;;;;;;10225167;28;20639;-75
2021/07/13 21:38:52;;;;;;;4.50;2.00;;;;;;;;;;10223641;28;20256;-74
2021/07/13 21:43:56;;;;;;;4.33;1.90;;;;;;;;;;10235009;28;20217;-75
2021/07/13 21:48:59;;;;;;;4.73;2.23;;;;;;;;;;10239209;28;20644;-74
2021/07/13 21:54:01;;;;;;;4.80;2.03;;;;;;;;;;10234915;28;20225;-75
2021/07/13 21:59:05;;;;;;;3.37;1.80;;;;;;;;;;10249023;28;20357;-76
2021/07/13 22:04:08;;;;;;;4.03;2.00;;;;;;;;;;10248278;28;20399;-76
2021/07/13 22:09:11;;;;;;;3.50;2.00;;;;;;;;;;10240427;28;20197;-74
2021/07/13 22:14:15;;;;;;;4.33;2.00;;;;;;;;;;10237589;28;20264;-75
2021/07/13 22:19:18;;;;;;;3.73;1.90;;;;;;;;;;10247436;28;20211;-74
2021/07/13 22:24:20;;;;;;;4.73;1.97;;;;;;;;;;10243027;28;20239;-75
2021/07/13 22:29:28;;;;;;;3.60;1.97;;;;;;;;;;10248332;28;20564;-75
2021/07/13 22:34:32;;;;;;;2.97;2.00;;;;;;;;;;10254537;28;20227;-77
2021/07/13 22:39:34;;;;;;;4.03;2.00;;;;;;;;;;10247312;28;20703;-77
2021/07/13 22:44:38;;;;;;;4.00;2.00;;;;;;;;;;10249820;28;20238;-76
2021/07/13 22:49:41;;;;;;;3.67;1.67;;;;;;;;;;10241599;28;20215;-75
2021/07/13 22:54:43;;;;;;;3.03;1.80;;;;;;;;;;10247675;28;20364;-76
2021/07/13 22:59:47;;;;;;;2.50;1.43;;;;;;;;;;10236928;28;20215;-74
2021/07/13 23:04:49;;;;;;;3.17;1.57;;;;;;;;;;10239520;28;20284;-75
2021/07/13 23:09:52;;;;;;;3.57;1.33;;;;;;;;;;10234894;28;20284;-76
2021/07/13 23:14:57;;;;;;;3.73;2.27;;;;;;;;;;10244040;28;20581;-77
2021/07/13 23:20:14;;;;;;;4.13;1.80;;;;;;;;;;10250145;28;20244;-78
2021/07/13 23:25:17;;;;;;;4.83;1.90;;;;;;;;;;10242227;28;20200;-78
2021/07/13 23:30:22;;;;;;;3.90;1.73;;;;;;;;;;10241901;28;20694;-76
2021/07/13 23:35:25;;;;;;;4.60;1.80;;;;;;;;;;10239553;28;20205;-77
2021/07/13 23:40:28;;;;;;;3.83;1.80;;;;;;;;;;10243894;28;20220;-76
2021/07/13 23:45:32;;;;;;;2.77;1.43;;;;;;;;;;10243288;28;20192;-76
2021/07/13 23:50:35;;;;;;;3.07;1.53;;;;;;;;;;10244426;28;20212;-75
2021/07/13 23:55:37;;;;;;;4.93;1.60;;;;;;;;;;10259180;28;20275;-76
